Time;durP1;ratioP1;P1;durP2;ratioP2;P2;SDS_P1;SDS_P2;PMS_P1;PMS_P2;Temp;Humidity;BMP_temperature;BMP_pressure;BME280_temperature;BME280_humidity;BME280_pressure;Samples;Min_cycle;Max_cycle;Signal;HPM_P1;HPM_P2
2022/09/03 00:00:25;;;;;;;1.97;0.90;;;;;;;;;;5074940;28;20444;-70
2022/09/03 00:02:57;;;;;;;2.47;1.00;;;;;;;;;;5074777;28;20454;-70
2022/09/03 00:05:29;;;;;;;5.00;0.80;;;;;;;;;;5075166;28;20500;-70
2022/09/03 00:08:01;;;;;;;2.80;1.20;;;;;;;;;;5075595;28;20562;-70
2022/09/03 00:10:30;;;;;;;2.83;0.83;;;;;;;;;;5075068;28;20460;-70
2022/09/03 00:12:59;;;;;;;2.70;0.90;;;;;;;;;;5074889;28;20484;-70
2022/09/03 00:15:27;;;;;;;3.00;1.20;;;;;;;;;;5075068;28;20456;-71
2022/09/03 00:17:55;;;;;;;3.13;1.20;;;;;;;;;;5074392;28;20449;-70
2022/09/03 00:20:25;;;;;;;2.97;1.10;;;;;;;;;;5075523;28;20533;-70
2022/09/03 00:22:54;;;;;;;2.63;0.80;;;;;;;;;;5076015;28;20444;-70
2022/09/03 00:25:23;;;;;;;3.73;1.00;;;;;;;;;;5094345;28;20565;-69
2022/09/03 00:27:58;;;;;;;3.30;0.90;;;;;;;;;;5095609;28;20478;-70
2022/09/03 00:30:26;;;;;;;2.60;0.87;;;;;;;;;;5094818;28;20459;-70
2022/09/03 00:32:58;;;;;;;3.17;0.80;;;;;;;;;;5095603;28;20487;-70
2022/09/03 00:35:27;;;;;;;4.97;1.40;;;;;;;;;;5095025;28;20451;-70
2022/09/03 00:37:55;;;;;;;3.47;1.43;;;;;;;;;;5094705;28;20719;-70
2022/09/03 00:40:33;;;;;;;3.40;1.10;;;;;;;;;;5095088;28;20499;-71
2022/09/03 00:43:04;;;;;;;3.87;0.90;;;;;;;;;;5079872;28;20933;-69
2022/09/03 00:45:34;;;;;;;3.20;1.00;;;;;;;;;;5095048;28;20510;-70
2022/09/03 00:48:06;;;;;;;3.53;1.33;;;;;;;;;;5094006;28;20447;-70
2022/09/03 00:50:41;;;;;;;3.03;0.97;;;;;;;;;;5095686;28;20558;-69
2022/09/03 00:53:11;;;;;;;4.50;1.13;;;;;;;;;;5095284;28;20482;-70
2022/09/03 00:55:46;;;;;;;4.23;1.43;;;;;;;;;;5094054;28;20761;-69
2022/09/03 00:58:42;;;;;;;3.27;1.07;;;;;;;;;;5094324;28;20803;-69
2022/09/03 01:01:15;;;;;;;3.03;1.07;;;;;;;;;;5088845;28;20524;-69
2022/09/03 01:03:50;;;;;;;3.30;1.00;;;;;;;;;;5074752;28;20445;-70
2022/09/03 01:06:18;;;;;;;3.03;0.90;;;;;;;;;;5073835;28;20487;-69
2022/09/03 01:09:01;;;;;;;3.73;1.00;;;;;;;;;;5074208;28;20444;-69
2022/09/03 01:11:30;;;;;;;3.30;1.20;;;;;;;;;;5088292;28;20987;-70
2022/09/03 01:14:05;;;;;;;3.13;1.07;;;;;;;;;;5094704;28;20548;-71
2022/09/03 01:16:36;;;;;;;4.07;1.00;;;;;;;;;;5093582;28;20459;-69
2022/09/03 01:19:12;;;;;;;3.47;1.10;;;;;;;;;;5078730;28;20540;-70
2022/09/03 01:21:48;;;;;;;3.53;1.40;;;;;;;;;;5073565;28;21365;-69
2022/09/03 01:24:30;;;;;;;3.20;1.07;;;;;;;;;;5089596;28;20467;-69
2022/09/03 01:27:05;;;;;;;5.97;0.90;;;;;;;;;;5095888;28;20455;-70
2022/09/03 01:29:35;;;;;;;4.30;1.10;;;;;;;;;;5093193;28;20463;-70
2022/09/03 01:32:06;;;;;;;3.07;0.90;;;;;;;;;;5094482;28;20755;-70
2022/09/03 01:34:43;;;;;;;2.60;0.80;;;;;;;;;;5093402;28;20487;-69
2022/09/03 01:37:14;;;;;;;4.43;1.37;;;;;;;;;;5094938;28;20455;-70
2022/09/03 01:39:46;;;;;;;5.40;1.20;;;;;;;;;;5093995;28;20451;-69
2022/09/03 01:42:17;;;;;;;5.13;1.10;;;;;;;;;;5094015;28;20447;-70
2022/09/03 01:45:07;;;;;;;3.20;0.87;;;;;;;;;;5094004;28;20524;-69
2022/09/03 01:47:50;;;;;;;3.23;1.07;;;;;;;;;;5092908;28;20556;-70
2022/09/03 01:50:32;;;;;;;3.33;1.10;;;;;;;;;;5093542;28;20514;-69
2022/09/03 01:53:05;;;;;;;3.50;1.10;;;;;;;;;;5094153;28;20440;-69
2022/09/03 01:55:40;;;;;;;4.30;1.00;;;;;;;;;;5079258;28;20787;-70
2022/09/03 01:58:16;;;;;;;3.00;1.20;;;;;;;;;;5073031;28;20572;-70
2022/09/03 02:00:44;;;;;;;2.77;0.83;;;;;;;;;;5074299;28;20491;-69
2022/09/03 02:03:18;;;;;;;3.23;1.03;;;;;;;;;;5072945;28;20480;-69
2022/09/03 02:05:47;;;;;;;3.17;1.10;;;;;;;;;;5080517;28;20502;-71
2022/09/03 02:08:19;;;;;;;2.80;0.83;;;;;;;;;;5093806;28;20448;-68
2022/09/03 02:10:47;;;;;;;3.57;1.37;;;;;;;;;;5092913;28;20754;-69
2022/09/03 02:13:17;;;;;;;3.77;1.03;;;;;;;;;;5092699;28;20499;-69
2022/09/03 02:15:46;;;;;;;3.03;0.93;;;;;;;;;;5092561;28;20581;-70
2022/09/03 02:18:16;;;;;;;3.10;0.90;;;;;;;;;;5093625;28;20470;-68
2022/09/03 02:20:45;;;;;;;4.00;1.20;;;;;;;;;;5092765;28;20612;-68
2022/09/03 02:23:12;;;;;;;3.30;1.10;;;;;;;;;;5093239;28;20726;-70
2022/09/03 02:25:41;;;;;;;3.50;1.03;;;;;;;;;;5094428;28;20483;-68
2022/09/03 02:28:09;;;;;;;5.50;1.07;;;;;;;;;;5093765;28;20458;-70
2022/09/03 02:30:36;;;;;;;3.97;0.90;;;;;;;;;;5096421;28;20452;-69
2022/09/03 02:33:04;;;;;;;5.63;1.10;;;;;;;;;;5096791;28;20483;-69
2022/09/03 02:35:41;;;;;;;4.20;1.20;;;;;;;;;;5097342;28;20451;-70
2022/09/03 02:38:20;;;;;;;4.27;1.03;;;;;;;;;;5096700;28;20438;-70
2022/09/03 02:40:49;;;;;;;3.23;1.10;;;;;;;;;;5096433;28;20448;-69
2022/09/03 02:43:18;;;;;;;3.40;1.20;;;;;;;;;;5096580;28;20573;-70
2022/09/03 02:45:47;;;;;;;4.43;1.27;;;;;;;;;;5096201;28;20841;-71
2022/09/03 02:48:24;;;;;;;3.20;1.17;;;;;;;;;;5096820;28;21720;-70
2022/09/03 02:50:52;;;;;;;4.27;1.60;;;;;;;;;;5096385;28;20455;-69
2022/09/03 02:53:19;;;;;;;3.50;1.00;;;;;;;;;;5096871;28;20490;-69
2022/09/03 02:55:49;;;;;;;3.03;0.97;;;;;;;;;;5096947;28;20478;-69
2022/09/03 02:58:19;;;;;;;3.50;1.03;;;;;;;;;;5096243;28;20523;-70
2022/09/03 03:00:48;;;;;;;4.07;0.90;;;;;;;;;;5096551;28;20466;-69
2022/09/03 03:03:31;;;;;;;4.50;1.50;;;;;;;;;;5095850;28;20822;-70
2022/09/03 03:06:06;;;;;;;4.27;1.37;;;;;;;;;;5097127;28;20466;-70
2022/09/03 03:08:37;;;;;;;4.20;1.20;;;;;;;;;;5095869;28;20536;-69
2022/09/03 03:11:14;;;;;;;3.70;1.30;;;;;;;;;;5097435;28;20849;-70
2022/09/03 03:13:41;;;;;;;3.63;1.10;;;;;;;;;;5096049;28;20519;-69
2022/09/03 03:16:08;;;;;;;3.27;0.80;;;;;;;;;;5096898;28;20501;-69
2022/09/03 03:18:36;;;;;;;3.53;1.27;;;;;;;;;;5096165;28;20471;-69
2022/09/03 03:21:05;;;;;;;2.90;0.83;;;;;;;;;;5096229;28;20478;-69
2022/09/03 03:23:32;;;;;;;3.13;1.10;;;;;;;;;;5095851;28;20742;-70
2022/09/03 03:26:01;;;;;;;5.00;1.30;;;;;;;;;;5096718;28;20455;-69
2022/09/03 03:28:28;;;;;;;3.63;1.10;;;;;;;;;;5096432;28;20559;-69
2022/09/03 03:30:55;;;;;;;3.00;0.80;;;;;;;;;;5096903;28;20517;-69
2022/09/03 03:33:22;;;;;;;5.30;1.03;;;;;;;;;;5095833;28;20495;-69
2022/09/03 03:35:50;;;;;;;3.10;0.90;;;;;;;;;;5095803;28;20452;-70
2022/09/03 03:38:17;;;;;;;3.07;0.90;;;;;;;;;;5095895;28;20451;-69
2022/09/03 03:40:44;;;;;;;4.73;1.27;;;;;;;;;;5096147;28;20455;-70
2022/09/03 03:43:11;;;;;;;3.20;1.00;;;;;;;;;;5096203;28;20520;-69
2022/09/03 03:45:38;;;;;;;4.33;1.23;;;;;;;;;;5096616;28;20494;-69
2022/09/03 03:48:06;;;;;;;3.53;1.00;;;;;;;;;;5095672;28;20452;-69
2022/09/03 03:50:33;;;;;;;6.10;2.10;;;;;;;;;;5096561;28;20452;-70
2022/09/03 03:53:01;;;;;;;3.13;1.10;;;;;;;;;;5075978;28;20461;-70
2022/09/03 03:55:28;;;;;;;3.40;1.20;;;;;;;;;;5075709;28;20556;-69
2022/09/03 03:57:55;;;;;;;3.53;1.00;;;;;;;;;;5075990;28;20871;-69
2022/09/03 04:00:22;;;;;;;3.00;1.07;;;;;;;;;;5080127;28;20463;-70
2022/09/03 04:02:49;;;;;;;4.47;1.40;;;;;;;;;;5095718;28;20495;-69
2022/09/03 04:05:17;;;;;;;5.37;1.20;;;;;;;;;;5096080;28;20452;-69
2022/09/03 04:07:44;;;;;;;3.67;1.00;;;;;;;;;;5095771;28;20546;-70
2022/09/03 04:10:12;;;;;;;3.10;0.97;;;;;;;;;;5096565;28;20448;-69
2022/09/03 04:12:39;;;;;;;3.70;1.50;;;;;;;;;;5095134;28;21033;-69
2022/09/03 04:15:06;;;;;;;3.60;1.30;;;;;;;;;;5096157;28;20480;-70
2022/09/03 04:17:36;;;;;;;3.20;0.87;;;;;;;;;;5095601;28;20455;-70
2022/09/03 04:20:04;;;;;;;5.17;1.03;;;;;;;;;;5095240;28;20448;-70
2022/09/03 04:22:31;;;;;;;5.57;1.23;;;;;;;;;;5095724;28;20857;-69
2022/09/03 04:24:58;;;;;;;5.10;1.00;;;;;;;;;;5095762;28;20736;-69
2022/09/03 04:27:26;;;;;;;5.33;1.00;;;;;;;;;;5094842;28;20451;-70
2022/09/03 04:29:53;;;;;;;4.40;1.47;;;;;;;;;;5095418;28;20451;-69
2022/09/03 04:35:07;;;;;;;4.00;1.23;;;;;;;;;;5094933;28;21018;-69
2022/09/03 04:37:34;;;;;;;2.23;0.97;;;;;;;;;;5095341;28;21038;-69
2022/09/03 04:40:01;;;;;;;1.80;0.87;;;;;;;;;;5095752;28;20531;-70
2022/09/03 04:42:29;;;;;;;2.17;0.90;;;;;;;;;;5094624;28;20875;-69
2022/09/03 04:44:59;;;;;;;2.83;1.43;;;;;;;;;;5095347;28;20546;-69
2022/09/03 04:47:26;;;;;;;4.70;1.27;;;;;;;;;;5095403;28;20464;-69
2022/09/03 04:49:54;;;;;;;3.27;1.00;;;;;;;;;;5095680;28;20501;-69
2022/09/03 04:52:21;;;;;;;2.73;1.30;;;;;;;;;;5094712;28;20850;-70
2022/09/03 04:54:48;;;;;;;1.70;0.90;;;;;;;;;;5086369;28;20491;-69
2022/09/03 04:57:15;;;;;;;2.20;1.10;;;;;;;;;;5075078;28;20552;-70
2022/09/03 04:59:43;;;;;;;3.17;1.20;;;;;;;;;;5075199;28;20452;-69
2022/09/03 05:02:14;;;;;;;3.00;1.50;;;;;;;;;;5073730;28;20946;-70
2022/09/03 05:04:41;;;;;;;2.43;1.10;;;;;;;;;;5074502;28;20478;-70
2022/09/03 05:07:08;;;;;;;2.00;0.83;;;;;;;;;;5073953;28;20906;-70
2022/09/03 05:09:36;;;;;;;5.20;1.50;;;;;;;;;;5074165;28;20508;-70
2022/09/03 05:12:06;;;;;;;3.60;1.30;;;;;;;;;;5074212;28;20783;-69
2022/09/03 05:14:33;;;;;;;3.00;1.10;;;;;;;;;;5074493;28;20499;-69
2022/09/03 05:17:01;;;;;;;5.17;1.20;;;;;;;;;;5073716;28;20487;-69
2022/09/03 05:19:31;;;;;;;2.47;1.00;;;;;;;;;;5073355;28;20525;-69
2022/09/03 05:21:58;;;;;;;4.30;1.50;;;;;;;;;;5074749;28;20445;-69
2022/09/03 05:24:25;;;;;;;4.80;1.20;;;;;;;;;;5073730;28;20452;-69
2022/09/03 05:26:54;;;;;;;4.70;1.00;;;;;;;;;;5073953;28;20509;-70
2022/09/03 05:29:21;;;;;;;7.80;1.20;;;;;;;;;;5072927;28;20445;-69
2022/09/03 05:31:48;;;;;;;2.77;0.93;;;;;;;;;;5073629;28;20455;-69
2022/09/03 05:34:16;;;;;;;3.03;1.37;;;;;;;;;;5073102;28;20496;-69
2022/09/03 05:36:45;;;;;;;3.30;1.20;;;;;;;;;;5073446;28;20499;-69
2022/09/03 05:39:12;;;;;;;6.73;1.40;;;;;;;;;;5074092;28;20538;-69
2022/09/03 05:41:40;;;;;;;5.03;0.90;;;;;;;;;;5071658;28;20476;-69
2022/09/03 05:44:10;;;;;;;3.17;1.00;;;;;;;;;;5073194;28;20495;-69
2022/09/03 05:46:37;;;;;;;5.00;1.27;;;;;;;;;;5081609;28;20463;-69
2022/09/03 05:49:05;;;;;;;3.30;1.40;;;;;;;;;;5076202;28;20463;-69
2022/09/03 05:51:34;;;;;;;12.40;1.57;;;;;;;;;;5073752;28;20825;-68
2022/09/03 05:54:01;;;;;;;2.90;1.00;;;;;;;;;;5073885;28;20495;-68
2022/09/03 05:56:30;;;;;;;2.37;0.93;;;;;;;;;;5074973;28;20484;-70
2022/09/03 05:58:59;;;;;;;2.10;0.90;;;;;;;;;;5084606;28;20467;-70
2022/09/03 06:01:34;;;;;;;2.60;1.17;;;;;;;;;;5094762;28;20448;-71
2022/09/03 06:04:01;;;;;;;2.33;0.93;;;;;;;;;;5093624;28;20467;-70
2022/09/03 06:06:33;;;;;;;1.73;0.83;;;;;;;;;;5090660;28;20886;-71
2022/09/03 06:09:01;;;;;;;3.33;1.00;;;;;;;;;;5076989;28;20464;-69
2022/09/03 06:11:29;;;;;;;2.07;0.83;;;;;;;;;;5076768;28;20862;-69
2022/09/03 06:14:00;;;;;;;2.87;0.90;;;;;;;;;;5077434;28;20494;-69
2022/09/03 06:16:27;;;;;;;2.10;0.97;;;;;;;;;;5076337;28;20432;-69
2022/09/03 06:18:55;;;;;;;2.20;1.10;;;;;;;;;;5076148;28;20503;-69
2022/09/03 06:21:23;;;;;;;2.20;1.13;;;;;;;;;;5075520;28;21074;-69
2022/09/03 06:23:51;;;;;;;1.90;1.03;;;;;;;;;;5076557;28;20467;-69
2022/09/03 06:26:23;;;;;;;2.57;1.07;;;;;;;;;;5078268;28;20456;-69
2022/09/03 06:28:53;;;;;;;4.43;1.93;;;;;;;;;;5081693;28;20779;-70
2022/09/03 06:31:22;;;;;;;2.33;1.30;;;;;;;;;;5087143;28;20770;-69
2022/09/03 06:33:50;;;;;;;2.73;1.00;;;;;;;;;;5085998;28;20483;-69
2022/09/03 06:36:19;;;;;;;2.97;1.03;;;;;;;;;;5088173;28;20463;-69
2022/09/03 06:38:46;;;;;;;5.23;1.80;;;;;;;;;;5084161;28;20452;-69
2022/09/03 06:41:23;;;;;;;4.20;1.67;;;;;;;;;;5076237;28;20483;-70
2022/09/03 06:43:52;;;;;;;3.57;1.67;;;;;;;;;;5075444;28;21003;-70
2022/09/03 06:46:20;;;;;;;3.00;1.00;;;;;;;;;;5075201;28;20503;-70
2022/09/03 06:48:47;;;;;;;3.07;0.80;;;;;;;;;;5075789;28;20539;-70
2022/09/03 06:51:16;;;;;;;3.40;1.23;;;;;;;;;;5080919;28;20469;-69
2022/09/03 06:53:46;;;;;;;4.20;1.40;;;;;;;;;;5075729;28;20551;-70
2022/09/03 06:56:15;;;;;;;5.30;1.50;;;;;;;;;;5090358;28;20549;-70
2022/09/03 06:58:44;;;;;;;5.77;1.23;;;;;;;;;;5095777;28;20546;-69
2022/09/03 07:01:14;;;;;;;7.03;1.20;;;;;;;;;;5094926;28;20458;-70
2022/09/03 07:03:43;;;;;;;4.90;1.70;;;;;;;;;;5091634;28;20479;-69
2022/09/03 07:06:11;;;;;;;3.47;1.20;;;;;;;;;;5083656;28;20580;-69
2022/09/03 07:08:38;;;;;;;3.60;1.17;;;;;;;;;;5074033;28;20452;-70
2022/09/03 07:11:07;;;;;;;4.50;1.37;;;;;;;;;;5074340;28;20927;-69
2022/09/03 07:13:35;;;;;;;3.30;1.20;;;;;;;;;;5092850;28;20494;-69
2022/09/03 07:16:06;;;;;;;2.90;1.10;;;;;;;;;;5085088;28;20475;-69
2022/09/03 07:18:34;;;;;;;3.20;1.23;;;;;;;;;;5081532;28;20474;-69
2022/09/03 07:21:24;;;;;;;6.53;1.90;;;;;;;;;;5079614;28;20476;-69
2022/09/03 07:23:52;;;;;;;2.47;1.10;;;;;;;;;;5075665;28;20925;-71
2022/09/03 07:26:23;;;;;;;2.40;1.10;;;;;;;;;;5075716;28;20745;-71
2022/09/03 07:28:52;;;;;;;4.80;1.20;;;;;;;;;;5095797;28;20459;-69
2022/09/03 07:31:24;;;;;;;2.53;1.13;;;;;;;;;;5085884;28;20475;-70
2022/09/03 07:33:54;;;;;;;6.30;1.30;;;;;;;;;;5074350;28;20480;-69
2022/09/03 07:36:22;;;;;;;3.43;1.40;;;;;;;;;;5075339;28;20455;-70
2022/09/03 07:38:50;;;;;;;3.03;1.10;;;;;;;;;;5074280;28;20847;-70
2022/09/03 07:41:17;;;;;;;3.10;1.20;;;;;;;;;;5074870;28;20460;-70
2022/09/03 07:43:45;;;;;;;3.00;1.27;;;;;;;;;;5074481;28;20460;-70
2022/09/03 07:46:13;;;;;;;2.60;1.00;;;;;;;;;;5075569;28;20444;-70
2022/09/03 07:48:40;;;;;;;6.03;2.70;;;;;;;;;;5073397;28;20451;-71
2022/09/03 07:51:08;;;;;;;3.60;1.20;;;;;;;;;;5074953;28;20452;-70
2022/09/03 07:53:36;;;;;;;3.67;1.63;;;;;;;;;;5080542;28;20483;-70
2022/09/03 07:56:04;;;;;;;4.13;1.10;;;;;;;;;;5087993;28;20474;-70
2022/09/03 07:58:32;;;;;;;8.53;1.87;;;;;;;;;;5087416;28;20495;-70
2022/09/03 08:01:00;;;;;;;3.20;1.00;;;;;;;;;;5083921;28;20944;-70
2022/09/03 08:03:27;;;;;;;5.10;1.23;;;;;;;;;;5086497;28;20461;-70
2022/09/03 08:05:55;;;;;;;3.87;0.97;;;;;;;;;;5086979;28;20842;-70
2022/09/03 08:08:23;;;;;;;3.40;1.03;;;;;;;;;;5083136;28;20791;-70
2022/09/03 08:10:53;;;;;;;5.27;1.30;;;;;;;;;;5069817;28;20448;-70
2022/09/03 08:13:23;;;;;;;4.67;1.00;;;;;;;;;;5090202;28;20512;-70
2022/09/03 08:15:54;;;;;;;8.97;5.70;;;;;;;;;;5081343;28;20540;-71
2022/09/03 08:18:22;;;;;;;4.30;1.50;;;;;;;;;;5086639;28;20466;-70
2022/09/03 08:20:49;;;;;;;4.03;1.30;;;;;;;;;;5086682;28;20456;-70
2022/09/03 08:23:17;;;;;;;3.57;1.03;;;;;;;;;;5082314;28;20492;-70
2022/09/03 08:25:45;;;;;;;4.60;1.23;;;;;;;;;;5073221;28;20448;-70
2022/09/03 08:28:12;;;;;;;4.00;1.17;;;;;;;;;;5072832;28;20466;-69
2022/09/03 08:30:39;;;;;;;5.90;1.10;;;;;;;;;;5093310;28;20455;-69
2022/09/03 08:33:08;;;;;;;3.70;0.93;;;;;;;;;;5093184;28;20759;-69
2022/09/03 08:35:36;;;;;;;30.30;20.57;;;;;;;;;;5091154;28;20575;-69
2022/09/03 08:38:05;;;;;;;5.63;1.20;;;;;;;;;;5091395;28;20536;-71
2022/09/03 08:40:34;;;;;;;4.00;1.30;;;;;;;;;;5087401;28;20468;-69
2022/09/03 08:43:12;;;;;;;4.27;1.20;;;;;;;;;;5090288;28;20532;-70
2022/09/03 08:45:39;;;;;;;3.70;1.13;;;;;;;;;;5093773;28;20451;-70
2022/09/03 08:48:09;;;;;;;3.40;1.00;;;;;;;;;;5102373;27;20520;-71
2022/09/03 08:50:39;;;;;;;4.50;1.27;;;;;;;;;;5075251;28;20456;-70
2022/09/03 08:53:09;;;;;;;3.40;1.20;;;;;;;;;;5091903;28;20810;-70
2022/09/03 08:55:43;;;;;;;4.50;1.40;;;;;;;;;;5077649;28;20484;-71
2022/09/03 08:58:13;;;;;;;7.33;1.20;;;;;;;;;;5082430;28;20455;-71
2022/09/03 09:00:47;;;;;;;3.60;1.10;;;;;;;;;;5078146;28;20508;-71
2022/09/03 09:03:33;;;;;;;4.90;1.20;;;;;;;;;;5092103;28;20559;-72
2022/09/03 09:06:07;;;;;;;6.50;1.30;;;;;;;;;;5088473;28;20543;-69
2022/09/03 09:08:39;;;;;;;3.33;0.90;;;;;;;;;;5091551;28;20460;-69
2022/09/03 09:11:11;;;;;;;5.67;1.33;;;;;;;;;;5090878;28;20516;-69
2022/09/03 09:13:47;;;;;;;3.27;0.90;;;;;;;;;;5076228;28;20494;-69
2022/09/03 09:16:20;;;;;;;3.33;0.80;;;;;;;;;;5077115;28;20463;-69
2022/09/03 09:18:54;;;;;;;3.87;1.17;;;;;;;;;;5083275;28;20500;-68
2022/09/03 09:21:25;;;;;;;3.20;0.90;;;;;;;;;;5082277;28;20470;-69
2022/09/03 09:23:53;;;;;;;5.40;1.27;;;;;;;;;;5086696;28;20496;-68
2022/09/03 09:26:21;;;;;;;4.70;1.00;;;;;;;;;;5075573;28;20459;-70
2022/09/03 09:28:58;;;;;;;4.27;1.20;;;;;;;;;;5092132;28;20755;-70
2022/09/03 09:31:26;;;;;;;4.33;1.30;;;;;;;;;;5088621;28;20475;-70
2022/09/03 09:33:54;;;;;;;3.93;1.33;;;;;;;;;;5083288;28;20485;-70
2022/09/03 09:36:23;;;;;;;3.40;1.00;;;;;;;;;;5080383;28;20460;-69
2022/09/03 09:38:53;;;;;;;3.50;0.90;;;;;;;;;;5086344;28;20502;-70
2022/09/03 09:41:22;;;;;;;3.50;1.00;;;;;;;;;;5088386;28;20898;-71
2022/09/03 09:44:00;;;;;;;3.63;1.03;;;;;;;;;;5088101;28;20461;-70
2022/09/03 09:46:33;;;;;;;7.33;1.30;;;;;;;;;;5081014;28;20459;-72
2022/09/03 09:49:00;;;;;;;4.43;0.90;;;;;;;;;;5090587;28;21092;-70
2022/09/03 09:51:29;;;;;;;3.47;1.00;;;;;;;;;;5086675;28;20561;-72
2022/09/03 09:54:04;;;;;;;4.30;1.07;;;;;;;;;;5085596;28;20906;-70
2022/09/03 09:56:31;;;;;;;4.27;1.50;;;;;;;;;;5085702;28;20463;-69
2022/09/03 09:59:09;;;;;;;4.13;1.33;;;;;;;;;;5079464;28;20904;-70
2022/09/03 10:01:41;;;;;;;4.60;2.00;;;;;;;;;;5085915;28;20463;-72
2022/09/03 10:04:12;;;;;;;3.20;0.93;;;;;;;;;;5086583;28;20866;-71
2022/09/03 10:06:57;;;;;;;6.07;1.33;;;;;;;;;;5082385;28;20615;-71
2022/09/03 10:09:26;;;;;;;5.80;1.37;;;;;;;;;;5084597;28;20470;-71
2022/09/03 10:12:05;;;;;;;5.37;1.30;;;;;;;;;;5095931;27;20518;-71
2022/09/03 10:14:36;;;;;;;4.50;1.70;;;;;;;;;;5084337;28;20548;-71
2022/09/03 10:17:09;;;;;;;11.30;1.93;;;;;;;;;;5087872;28;20470;-71
2022/09/03 10:20:25;;;;;;;4.30;1.07;;;;;;;;;;5091087;28;20800;-71
2022/09/03 10:22:39;;;;;;;3.50;1.17;;;;;;;;;;5086472;28;20455;-71
2022/09/03 10:25:10;;;;;;;4.00;1.17;;;;;;;;;;5083979;28;20460;-69
2022/09/03 10:27:44;;;;;;;4.10;1.53;;;;;;;;;;5087680;28;20486;-71
2022/09/03 10:30:14;;;;;;;4.80;1.80;;;;;;;;;;5081787;28;20468;-69
2022/09/03 10:32:50;;;;;;;4.00;1.40;;;;;;;;;;5083236;28;20467;-70
2022/09/03 10:35:23;;;;;;;3.43;1.10;;;;;;;;;;5088591;28;20895;-70
2022/09/03 10:37:55;;;;;;;5.03;1.73;;;;;;;;;;5083985;28;20569;-71
2022/09/03 10:40:29;;;;;;;6.33;2.63;;;;;;;;;;5083943;28;20493;-70
2022/09/03 10:43:08;;;;;;;8.60;2.00;;;;;;;;;;5087210;28;20760;-71
2022/09/03 10:45:39;;;;;;;5.53;1.90;;;;;;;;;;5077980;28;20508;-70
2022/09/03 10:48:21;;;;;;;3.87;1.40;;;;;;;;;;5089174;28;20949;-71
2022/09/03 10:50:50;;;;;;;3.43;1.13;;;;;;;;;;5072964;28;20471;-70
2022/09/03 10:53:26;;;;;;;4.40;1.23;;;;;;;;;;5092564;28;20488;-71
2022/09/03 10:56:00;;;;;;;2.90;0.90;;;;;;;;;;5093765;28;20451;-71
2022/09/03 10:58:33;;;;;;;3.53;1.10;;;;;;;;;;5093413;28;20456;-70
2022/09/03 11:01:05;;;;;;;4.03;1.40;;;;;;;;;;5091686;28;20554;-71
2022/09/03 11:03:52;;;;;;;5.17;1.03;;;;;;;;;;5093737;28;20470;-70
2022/09/03 11:06:25;;;;;;;5.00;1.90;;;;;;;;;;5075135;28;20551;-71
2022/09/03 11:09:02;;;;;;;3.37;1.10;;;;;;;;;;5075703;28;20449;-71
2022/09/03 11:11:34;;;;;;;3.00;0.87;;;;;;;;;;5077432;28;20472;-71
2022/09/03 11:14:09;;;;;;;9.00;2.07;;;;;;;;;;5072549;28;20499;-70
2022/09/03 11:16:44;;;;;;;6.60;2.00;;;;;;;;;;5073108;28;20734;-69
2022/09/03 11:19:17;;;;;;;6.10;1.37;;;;;;;;;;5078961;28;20470;-69
2022/09/03 11:21:48;;;;;;;11.00;1.90;;;;;;;;;;5094130;28;20563;-70
2022/09/03 11:24:18;;;;;;;4.60;1.83;;;;;;;;;;5086915;28;20524;-71
2022/09/03 11:26:55;;;;;;;6.43;1.30;;;;;;;;;;5087443;28;20943;-70
2022/09/03 11:29:35;;;;;;;5.63;1.50;;;;;;;;;;5086387;28;20476;-71
2022/09/03 11:32:41;;;;;;;4.33;1.50;;;;;;;;;;5072680;28;20467;-70
2022/09/03 11:35:16;;;;;;;3.80;1.70;;;;;;;;;;5081650;28;20547;-69
2022/09/03 11:37:50;;;;;;;4.50;1.13;;;;;;;;;;5083921;27;20455;-69
2022/09/03 11:40:25;;;;;;;4.00;1.40;;;;;;;;;;5081541;28;20512;-70
2022/09/03 11:42:53;;;;;;;3.50;1.00;;;;;;;;;;5089791;28;20490;-71
2022/09/03 11:45:26;;;;;;;4.10;1.50;;;;;;;;;;5087628;28;20478;-71
2022/09/03 11:48:00;;;;;;;3.27;0.90;;;;;;;;;;5086150;28;20459;-70
2022/09/03 11:50:30;;;;;;;7.47;1.13;;;;;;;;;;5086398;28;20526;-70
2022/09/03 11:53:09;;;;;;;7.10;1.70;;;;;;;;;;5077245;28;20472;-70
2022/09/03 11:55:52;;;;;;;3.93;1.17;;;;;;;;;;5089514;28;20491;-71
2022/09/03 11:58:29;;;;;;;4.17;1.10;;;;;;;;;;5086908;28;20471;-70
2022/09/03 12:01:00;;;;;;;5.17;1.10;;;;;;;;;;5092820;28;20482;-70
2022/09/03 12:03:30;;;;;;;4.60;1.13;;;;;;;;;;5087409;28;20819;-70
2022/09/03 12:06:07;;;;;;;6.00;1.53;;;;;;;;;;5091412;28;20471;-70
2022/09/03 12:08:56;;;;;;;5.20;2.40;;;;;;;;;;5086601;28;20502;-70
2022/09/03 12:11:34;;;;;;;5.53;2.03;;;;;;;;;;5088392;28;20464;-71
2022/09/03 12:14:16;;;;;;;3.83;1.43;;;;;;;;;;5093528;28;20482;-71
2022/09/03 12:17:11;;;;;;;7.60;2.27;;;;;;;;;;5091917;28;20470;-70
2022/09/03 12:19:51;;;;;;;4.07;1.57;;;;;;;;;;5090812;28;20456;-69
2022/09/03 12:22:23;;;;;;;3.97;1.20;;;;;;;;;;5091013;28;20462;-70
2022/09/03 12:24:53;;;;;;;5.43;1.27;;;;;;;;;;5089931;28;20481;-71
2022/09/03 12:27:24;;;;;;;3.47;1.40;;;;;;;;;;5092435;28;20454;-71
2022/09/03 12:30:01;;;;;;;6.30;2.70;;;;;;;;;;5090845;28;20549;-71
2022/09/03 12:32:35;;;;;;;6.17;1.27;;;;;;;;;;5091996;28;20463;-70
2022/09/03 12:35:13;;;;;;;10.40;2.30;;;;;;;;;;5090004;28;20543;-71
2022/09/03 12:37:44;;;;;;;10.23;2.63;;;;;;;;;;5088603;28;20463;-71
2022/09/03 12:40:25;;;;;;;5.30;1.80;;;;;;;;;;5089905;28;20474;-71
2022/09/03 12:43:09;;;;;;;6.53;1.47;;;;;;;;;;5089153;28;20551;-72
2022/09/03 12:45:46;;;;;;;3.47;1.10;;;;;;;;;;5089595;28;20475;-70
2022/09/03 12:48:16;;;;;;;4.17;1.70;;;;;;;;;;5092004;28;21063;-69
2022/09/03 12:50:45;;;;;;;4.97;1.43;;;;;;;;;;5086001;28;20468;-70
2022/09/03 12:53:31;;;;;;;4.70;1.60;;;;;;;;;;5088191;28;20548;-72
2022/09/03 12:56:04;;;;;;;6.80;2.93;;;;;;;;;;5077569;28;20467;-72
2022/09/03 12:58:38;;;;;;;5.87;2.00;;;;;;;;;;5078472;28;20455;-72
2022/09/03 13:01:10;;;;;;;3.90;1.40;;;;;;;;;;5073326;28;20468;-70
2022/09/03 13:03:56;;;;;;;7.80;1.57;;;;;;;;;;5086773;28;20558;-70
2022/09/03 13:06:26;;;;;;;4.67;1.83;;;;;;;;;;5078814;28;20468;-70
2022/09/03 13:09:21;;;;;;;7.53;1.53;;;;;;;;;;5082737;28;21067;-72
2022/09/03 13:12:08;;;;;;;3.60;1.10;;;;;;;;;;5087615;28;20471;-70
2022/09/03 13:14:49;;;;;;;3.80;1.30;;;;;;;;;;5083296;28;20512;-70
2022/09/03 13:17:28;;;;;;;7.07;1.43;;;;;;;;;;5080649;28;20490;-70
2022/09/03 13:20:16;;;;;;;4.77;1.70;;;;;;;;;;5087516;28;20488;-70
2022/09/03 13:22:51;;;;;;;9.53;2.00;;;;;;;;;;5090586;28;20487;-70
2022/09/03 13:25:24;;;;;;;6.70;1.10;;;;;;;;;;5091530;28;20467;-69
2022/09/03 13:27:58;;;;;;;5.43;1.07;;;;;;;;;;5088748;28;20485;-70
2022/09/03 13:30:32;;;;;;;4.70;1.13;;;;;;;;;;5087349;28;20463;-69
2022/09/03 13:33:01;;;;;;;3.10;1.00;;;;;;;;;;5090793;28;20862;-69
2022/09/03 13:35:33;;;;;;;5.40;1.50;;;;;;;;;;5091817;28;20480;-70
2022/09/03 13:38:21;;;;;;;5.10;1.40;;;;;;;;;;5090666;28;20949;-70
2022/09/03 13:40:52;;;;;;;4.07;1.70;;;;;;;;;;5091312;28;20450;-70
2022/09/03 13:43:26;;;;;;;4.60;1.60;;;;;;;;;;5089392;28;20890;-71
2022/09/03 13:45:57;;;;;;;5.53;1.83;;;;;;;;;;5087661;28;20503;-71
2022/09/03 13:51:28;;;;;;;4.77;1.43;;;;;;;;;;5048654;28;21025;-70
2022/09/03 13:54:15;;;;;;;3.53;1.10;;;;;;;;;;5074709;28;20524;-71
2022/09/03 13:56:51;;;;;;;4.17;1.20;;;;;;;;;;5085890;28;20471;-71
2022/09/03 13:59:21;;;;;;;6.70;2.70;;;;;;;;;;5084083;28;20452;-71
2022/09/03 14:02:01;;;;;;;4.93;1.40;;;;;;;;;;5082155;28;20605;-71
2022/09/03 14:04:38;;;;;;;4.00;1.53;;;;;;;;;;5085319;28;20459;-71
2022/09/03 14:07:10;;;;;;;7.37;2.50;;;;;;;;;;5070272;28;20456;-71
2022/09/03 14:09:46;;;;;;;4.20;1.70;;;;;;;;;;5080550;28;20546;-71
2022/09/03 14:12:15;;;;;;;3.30;1.20;;;;;;;;;;5087440;28;20463;-70
2022/09/03 14:14:46;;;;;;;3.77;1.00;;;;;;;;;;5090761;28;20483;-70
2022/09/03 14:17:16;;;;;;;6.20;1.80;;;;;;;;;;5090631;28;20557;-70
2022/09/03 14:19:47;;;;;;;4.93;1.43;;;;;;;;;;5081934;28;20444;-71
2022/09/03 14:22:44;;;;;;;4.13;1.20;;;;;;;;;;5083830;28;20480;-70
2022/09/03 14:25:16;;;;;;;3.47;0.93;;;;;;;;;;5083010;28;20474;-70
2022/09/03 14:27:48;;;;;;;3.40;0.80;;;;;;;;;;5093847;28;20538;-70
2022/09/03 14:30:36;;;;;;;4.37;1.33;;;;;;;;;;5093974;28;21068;-70
2022/09/03 14:33:15;;;;;;;3.80;1.10;;;;;;;;;;5095139;28;20497;-71
2022/09/03 14:35:52;;;;;;;5.27;1.40;;;;;;;;;;5090819;28;20489;-71
2022/09/03 14:38:42;;;;;;;4.80;1.30;;;;;;;;;;5081895;28;20515;-70
2022/09/03 14:41:23;;;;;;;4.77;0.80;;;;;;;;;;5080538;28;20482;-70
2022/09/03 14:44:01;;;;;;;2.97;0.77;;;;;;;;;;5092741;28;20523;-70
2022/09/03 14:46:41;;;;;;;4.20;1.13;;;;;;;;;;5088291;28;20574;-70
2022/09/03 14:49:29;;;;;;;3.20;0.80;;;;;;;;;;5091800;28;20454;-70
2022/09/03 14:52:15;;;;;;;3.50;1.30;;;;;;;;;;5088632;28;20526;-70
2022/09/03 14:55:00;;;;;;;8.03;3.30;;;;;;;;;;5082737;28;20487;-70
2022/09/03 14:57:44;;;;;;;3.47;0.90;;;;;;;;;;5091017;28;20483;-70
2022/09/03 15:00:19;;;;;;;3.00;0.70;;;;;;;;;;5074417;28;20471;-70
2022/09/03 15:02:53;;;;;;;3.87;0.90;;;;;;;;;;5093832;28;20520;-72
2022/09/03 15:05:29;;;;;;;4.20;1.10;;;;;;;;;;5114909;28;20472;-71
2022/09/03 15:08:00;;;;;;;4.40;1.43;;;;;;;;;;5103108;28;20451;-70
2022/09/03 15:10:35;;;;;;;3.47;0.90;;;;;;;;;;5094877;28;20532;-71
2022/09/03 15:13:09;;;;;;;4.40;1.23;;;;;;;;;;5094328;28;20557;-70
2022/09/03 15:15:51;;;;;;;4.97;1.50;;;;;;;;;;5095327;28;20569;-71
2022/09/03 15:18:27;;;;;;;5.10;1.20;;;;;;;;;;5087578;28;20469;-70